sensor_id;sensor_type;location;lat;lon;timestamp;P1;durP1;ratioP1;P2;durP2;ratioP2
34204;SDS011;20471;49.680;20.074;2022-07-22T00:01:40;9.68;;;6.35;;
34204;SDS011;20471;49.680;20.074;2022-07-22T00:04:07;9.73;;;6.47;;
34204;SDS011;20471;49.680;20.074;2022-07-22T00:06:33;11.57;;;6.45;;
34204;SDS011;20471;49.680;20.074;2022-07-22T00:09:00;12.18;;;6.37;;
34204;SDS011;20471;49.680;20.074;2022-07-22T00:11:27;10.30;;;6.12;;
34204;SDS011;20471;49.680;20.074;2022-07-22T00:13:54;8.33;;;6.22;;
34204;SDS011;20471;49.680;20.074;2022-07-22T00:16:20;9.25;;;6.03;;
34204;SDS011;20471;49.680;20.074;2022-07-22T00:18:47;11.10;;;5.97;;
34204;SDS011;20471;49.680;20.074;2022-07-22T00:21:13;9.40;;;6.12;;
34204;SDS011;20471;49.680;20.074;2022-07-22T00:23:40;7.92;;;6.08;;
34204;SDS011;20471;49.680;20.074;2022-07-22T00:26:06;8.25;;;5.75;;
34204;SDS011;20471;49.680;20.074;2022-07-22T00:28:33;12.88;;;6.60;;
34204;SDS011;20471;49.680;20.074;2022-07-22T00:30:59;7.83;;;5.67;;
34204;SDS011;20471;49.680;20.074;2022-07-22T00:33:26;11.60;;;6.20;;
34204;SDS011;20471;49.680;20.074;2022-07-22T00:35:53;10.00;;;5.95;;
34204;SDS011;20471;49.680;20.074;2022-07-22T00:38:20;7.20;;;5.70;;
34204;SDS011;20471;49.680;20.074;2022-07-22T00:40:46;8.50;;;6.05;;
34204;SDS011;20471;49.680;20.074;2022-07-22T00:43:13;11.33;;;6.08;;
34204;SDS011;20471;49.680;20.074;2022-07-22T00:45:39;11.70;;;6.65;;
34204;SDS011;20471;49.680;20.074;2022-07-22T00:48:06;9.48;;;6.22;;
34204;SDS011;20471;49.680;20.074;2022-07-22T00:50:32;10.60;;;6.33;;
34204;SDS011;20471;49.680;20.074;2022-07-22T00:53:00;10.23;;;5.83;;
34204;SDS011;20471;49.680;20.074;2022-07-22T00:55:27;8.33;;;5.92;;
34204;SDS011;20471;49.680;20.074;2022-07-22T00:57:54;10.08;;;5.53;;
34204;SDS011;20471;49.680;20.074;2022-07-22T01:00:21;9.80;;;5.97;;
34204;SDS011;20471;49.680;20.074;2022-07-22T01:02:49;13.95;;;6.28;;
34204;SDS011;20471;49.680;20.074;2022-07-22T01:05:16;9.13;;;5.65;;
34204;SDS011;20471;49.680;20.074;2022-07-22T01:07:43;8.63;;;5.78;;
34204;SDS011;20471;49.680;20.074;2022-07-22T01:10:10;12.45;;;5.80;;
34204;SDS011;20471;49.680;20.074;2022-07-22T01:12:37;10.88;;;5.80;;
34204;SDS011;20471;49.680;20.074;2022-07-22T01:15:04;8.85;;;5.95;;
34204;SDS011;20471;49.680;20.074;2022-07-22T01:17:32;10.63;;;5.58;;
34204;SDS011;20471;49.680;20.074;2022-07-22T01:20:05;7.65;;;5.37;;
34204;SDS011;20471;49.680;20.074;2022-07-22T01:22:33;10.88;;;6.15;;
34204;SDS011;20471;49.680;20.074;2022-07-22T01:25:00;9.38;;;6.45;;
34204;SDS011;20471;49.680;20.074;2022-07-22T01:27:27;12.20;;;6.22;;
34204;SDS011;20471;49.680;20.074;2022-07-22T01:29:55;12.23;;;6.17;;
34204;SDS011;20471;49.680;20.074;2022-07-22T01:32:21;12.13;;;6.40;;
34204;SDS011;20471;49.680;20.074;2022-07-22T01:34:48;7.22;;;5.83;;
34204;SDS011;20471;49.680;20.074;2022-07-22T01:37:15;11.70;;;6.15;;
34204;SDS011;20471;49.680;20.074;2022-07-22T01:39:41;9.70;;;5.90;;
34204;SDS011;20471;49.680;20.074;2022-07-22T01:42:08;10.05;;;5.90;;
34204;SDS011;20471;49.680;20.074;2022-07-22T01:44:34;10.63;;;6.37;;
34204;SDS011;20471;49.680;20.074;2022-07-22T01:47:01;10.00;;;6.30;;
34204;SDS011;20471;49.680;20.074;2022-07-22T01:49:28;7.78;;;5.85;;
34204;SDS011;20471;49.680;20.074;2022-07-22T01:51:54;8.48;;;5.80;;
34204;SDS011;20471;49.680;20.074;2022-07-22T01:54:21;8.98;;;6.25;;
34204;SDS011;20471;49.680;20.074;2022-07-22T01:56:48;9.53;;;6.05;;
34204;SDS011;20471;49.680;20.074;2022-07-22T01:59:14;8.98;;;5.75;;
34204;SDS011;20471;49.680;20.074;2022-07-22T02:01:41;10.60;;;5.95;;
34204;SDS011;20471;49.680;20.074;2022-07-22T02:04:08;9.28;;;6.10;;
34204;SDS011;20471;49.680;20.074;2022-07-22T02:06:34;8.83;;;5.67;;
34204;SDS011;20471;49.680;20.074;2022-07-22T02:09:00;7.58;;;6.22;;
34204;SDS011;20471;49.680;20.074;2022-07-22T02:11:28;9.38;;;5.53;;
34204;SDS011;20471;49.680;20.074;2022-07-22T02:13:54;10.65;;;6.12;;
34204;SDS011;20471;49.680;20.074;2022-07-22T02:16:21;12.18;;;7.08;;
34204;SDS011;20471;49.680;20.074;2022-07-22T02:18:47;14.45;;;7.15;;
34204;SDS011;20471;49.680;20.074;2022-07-22T02:21:14;11.33;;;8.18;;
34204;SDS011;20471;49.680;20.074;2022-07-22T02:23:41;12.90;;;8.85;;
34204;SDS011;20471;49.680;20.074;2022-07-22T02:26:07;12.15;;;9.18;;
34204;SDS011;20471;49.680;20.074;2022-07-22T02:28:34;15.63;;;9.23;;
34204;SDS011;20471;49.680;20.074;2022-07-22T02:31:00;12.53;;;7.92;;
34204;SDS011;20471;49.680;20.074;2022-07-22T02:33:27;13.00;;;9.70;;
34204;SDS011;20471;49.680;20.074;2022-07-22T02:35:55;13.45;;;9.10;;
34204;SDS011;20471;49.680;20.074;2022-07-22T02:38:22;12.50;;;8.78;;
34204;SDS011;20471;49.680;20.074;2022-07-22T02:40:49;12.10;;;8.23;;
34204;SDS011;20471;49.680;20.074;2022-07-22T02:43:16;11.60;;;8.18;;
34204;SDS011;20471;49.680;20.074;2022-07-22T02:45:42;11.08;;;7.47;;
34204;SDS011;20471;49.680;20.074;2022-07-22T02:48:09;11.90;;;7.78;;
34204;SDS011;20471;49.680;20.074;2022-07-22T02:50:35;9.75;;;7.20;;
34204;SDS011;20471;49.680;20.074;2022-07-22T02:53:03;10.95;;;6.62;;
34204;SDS011;20471;49.680;20.074;2022-07-22T02:55:30;8.00;;;6.42;;
34204;SDS011;20471;49.680;20.074;2022-07-22T02:57:56;9.88;;;6.33;;
34204;SDS011;20471;49.680;20.074;2022-07-22T03:00:26;12.00;;;6.28;;
34204;SDS011;20471;49.680;20.074;2022-07-22T03:02:53;12.53;;;6.83;;
34204;SDS011;20471;49.680;20.074;2022-07-22T03:05:20;8.23;;;6.17;;
34204;SDS011;20471;49.680;20.074;2022-07-22T03:07:46;10.25;;;6.47;;
34204;SDS011;20471;49.680;20.074;2022-07-22T03:10:14;9.95;;;7.00;;
34204;SDS011;20471;49.680;20.074;2022-07-22T03:12:41;12.45;;;6.53;;
34204;SDS011;20471;49.680;20.074;2022-07-22T03:15:07;9.45;;;6.55;;
34204;SDS011;20471;49.680;20.074;2022-07-22T03:17:35;9.98;;;6.85;;
34204;SDS011;20471;49.680;20.074;2022-07-22T03:20:03;10.05;;;6.72;;
34204;SDS011;20471;49.680;20.074;2022-07-22T03:22:32;10.23;;;6.97;;
34204;SDS011;20471;49.680;20.074;2022-07-22T03:24:59;8.75;;;6.00;;
34204;SDS011;20471;49.680;20.074;2022-07-22T03:27:26;9.33;;;6.62;;
34204;SDS011;20471;49.680;20.074;2022-07-22T03:29:53;9.70;;;6.80;;
34204;SDS011;20471;49.680;20.074;2022-07-22T03:32:19;8.43;;;6.87;;
34204;SDS011;20471;49.680;20.074;2022-07-22T03:34:46;10.48;;;6.95;;
34204;SDS011;20471;49.680;20.074;2022-07-22T03:37:13;11.20;;;6.83;;
34204;SDS011;20471;49.680;20.074;2022-07-22T03:39:39;11.53;;;6.65;;
34204;SDS011;20471;49.680;20.074;2022-07-22T03:42:06;13.83;;;6.70;;
34204;SDS011;20471;49.680;20.074;2022-07-22T03:44:33;9.73;;;6.58;;
34204;SDS011;20471;49.680;20.074;2022-07-22T03:47:00;11.30;;;7.03;;
34204;SDS011;20471;49.680;20.074;2022-07-22T03:49:26;7.58;;;6.47;;
34204;SDS011;20471;49.680;20.074;2022-07-22T03:51:55;10.60;;;7.12;;
34204;SDS011;20471;49.680;20.074;2022-07-22T03:54:21;13.65;;;6.65;;
34204;SDS011;20471;49.680;20.074;2022-07-22T03:56:48;10.68;;;7.05;;
34204;SDS011;20471;49.680;20.074;2022-07-22T03:59:15;11.10;;;6.90;;
34204;SDS011;20471;49.680;20.074;2022-07-22T04:01:42;9.75;;;6.60;;
34204;SDS011;20471;49.680;20.074;2022-07-22T04:04:09;11.90;;;7.08;;
34204;SDS011;20471;49.680;20.074;2022-07-22T04:06:35;10.03;;;7.00;;
34204;SDS011;20471;49.680;20.074;2022-07-22T04:09:02;13.18;;;7.28;;
34204;SDS011;20471;49.680;20.074;2022-07-22T04:11:28;11.97;;;7.55;;
34204;SDS011;20471;49.680;20.074;2022-07-22T04:13:55;11.75;;;7.75;;
34204;SDS011;20471;49.680;20.074;2022-07-22T04:16:21;15.30;;;8.00;;
34204;SDS011;20471;49.680;20.074;2022-07-22T04:18:48;9.53;;;7.50;;
34204;SDS011;20471;49.680;20.074;2022-07-22T04:21:15;15.13;;;7.33;;
34204;SDS011;20471;49.680;20.074;2022-07-22T04:23:41;15.65;;;7.72;;
34204;SDS011;20471;49.680;20.074;2022-07-22T04:26:08;15.65;;;7.30;;
34204;SDS011;20471;49.680;20.074;2022-07-22T04:28:35;11.75;;;6.65;;
34204;SDS011;20471;49.680;20.074;2022-07-22T04:31:02;12.05;;;7.67;;
34204;SDS011;20471;49.680;20.074;2022-07-22T04:33:29;12.70;;;7.90;;
34204;SDS011;20471;49.680;20.074;2022-07-22T04:35:56;14.33;;;9.60;;
34204;SDS011;20471;49.680;20.074;2022-07-22T04:38:22;18.40;;;10.10;;
34204;SDS011;20471;49.680;20.074;2022-07-22T04:40:49;15.40;;;8.93;;
34204;SDS011;20471;49.680;20.074;2022-07-22T04:43:16;15.95;;;8.53;;
34204;SDS011;20471;49.680;20.074;2022-07-22T04:45:42;13.22;;;8.10;;
34204;SDS011;20471;49.680;20.074;2022-07-22T04:48:09;13.25;;;7.53;;
34204;SDS011;20471;49.680;20.074;2022-07-22T04:50:36;13.85;;;8.00;;
34204;SDS011;20471;49.680;20.074;2022-07-22T04:53:03;15.58;;;8.73;;
34204;SDS011;20471;49.680;20.074;2022-07-22T04:55:30;14.50;;;7.40;;
34204;SDS011;20471;49.680;20.074;2022-07-22T04:57:57;15.08;;;8.58;;
34204;SDS011;20471;49.680;20.074;2022-07-22T05:00:23;16.10;;;8.03;;
34204;SDS011;20471;49.680;20.074;2022-07-22T05:02:50;16.10;;;7.53;;
34204;SDS011;20471;49.680;20.074;2022-07-22T05:05:16;17.40;;;8.00;;
34204;SDS011;20471;49.680;20.074;2022-07-22T05:07:43;14.60;;;7.78;;
34204;SDS011;20471;49.680;20.074;2022-07-22T05:10:10;16.65;;;8.10;;
34204;SDS011;20471;49.680;20.074;2022-07-22T05:12:36;14.78;;;9.00;;
34204;SDS011;20471;49.680;20.074;2022-07-22T05:15:03;15.48;;;9.20;;
34204;SDS011;20471;49.680;20.074;2022-07-22T05:17:30;21.90;;;9.63;;
34204;SDS011;20471;49.680;20.074;2022-07-22T05:19:57;16.67;;;8.78;;
34204;SDS011;20471;49.680;20.074;2022-07-22T05:22:23;12.68;;;8.48;;
34204;SDS011;20471;49.680;20.074;2022-07-22T05:24:50;14.05;;;7.80;;
34204;SDS011;20471;49.680;20.074;2022-07-22T05:27:17;11.73;;;8.23;;
34204;SDS011;20471;49.680;20.074;2022-07-22T05:29:43;10.78;;;7.03;;
34204;SDS011;20471;49.680;20.074;2022-07-22T05:32:10;11.88;;;7.72;;
34204;SDS011;20471;49.680;20.074;2022-07-22T05:34:36;15.70;;;8.08;;
34204;SDS011;20471;49.680;20.074;2022-07-22T05:37:03;14.43;;;7.15;;
34204;SDS011;20471;49.680;20.074;2022-07-22T05:39:29;14.23;;;8.15;;
34204;SDS011;20471;49.680;20.074;2022-07-22T05:41:56;11.33;;;6.72;;
34204;SDS011;20471;49.680;20.074;2022-07-22T05:44:22;13.05;;;7.00;;
34204;SDS011;20471;49.680;20.074;2022-07-22T05:46:49;15.65;;;8.65;;
34204;SDS011;20471;49.680;20.074;2022-07-22T05:49:16;18.40;;;8.38;;
34204;SDS011;20471;49.680;20.074;2022-07-22T05:51:42;13.68;;;7.47;;
34204;SDS011;20471;49.680;20.074;2022-07-22T05:54:09;16.27;;;7.50;;
34204;SDS011;20471;49.680;20.074;2022-07-22T05:56:35;12.95;;;7.62;;
34204;SDS011;20471;49.680;20.074;2022-07-22T05:59:02;11.75;;;7.62;;
34204;SDS011;20471;49.680;20.074;2022-07-22T06:01:28;14.65;;;7.78;;
34204;SDS011;20471;49.680;20.074;2022-07-22T06:03:55;13.10;;;8.43;;
34204;SDS011;20471;49.680;20.074;2022-07-22T06:06:21;14.40;;;8.70;;
34204;SDS011;20471;49.680;20.074;2022-07-22T06:08:48;12.35;;;7.92;;
34204;SDS011;20471;49.680;20.074;2022-07-22T06:11:15;16.82;;;8.13;;
34204;SDS011;20471;49.680;20.074;2022-07-22T06:13:41;15.88;;;8.25;;
34204;SDS011;20471;49.680;20.074;2022-07-22T06:16:08;13.78;;;7.80;;
34204;SDS011;20471;49.680;20.074;2022-07-22T06:18:34;14.33;;;8.73;;
34204;SDS011;20471;49.680;20.074;2022-07-22T06:21:01;21.73;;;14.60;;
34204;SDS011;20471;49.680;20.074;2022-07-22T06:23:27;207.55;;;150.47;;
34204;SDS011;20471;49.680;20.074;2022-07-22T06:25:54;145.15;;;103.62;;
34204;SDS011;20471;49.680;20.074;2022-07-22T06:28:21;69.03;;;44.88;;
34204;SDS011;20471;49.680;20.074;2022-07-22T06:30:47;31.90;;;18.25;;
34204;SDS011;20471;49.680;20.074;2022-07-22T06:33:14;21.95;;;11.80;;
34204;SDS011;20471;49.680;20.074;2022-07-22T06:35:41;53.05;;;31.12;;
34204;SDS011;20471;49.680;20.074;2022-07-22T06:38:07;59.93;;;37.58;;
34204;SDS011;20471;49.680;20.074;2022-07-22T06:40:34;26.35;;;18.65;;
34204;SDS011;20471;49.680;20.074;2022-07-22T06:43:01;17.00;;;11.63;;
34204;SDS011;20471;49.680;20.074;2022-07-22T06:45:28;16.73;;;11.40;;
34204;SDS011;20471;49.680;20.074;2022-07-22T06:47:55;15.80;;;10.00;;
34204;SDS011;20471;49.680;20.074;2022-07-22T06:50:22;15.93;;;11.03;;
34204;SDS011;20471;49.680;20.074;2022-07-22T06:52:48;19.87;;;10.82;;
34204;SDS011;20471;49.680;20.074;2022-07-22T06:55:15;18.52;;;10.63;;
34204;SDS011;20471;49.680;20.074;2022-07-22T06:57:41;20.05;;;10.82;;
34204;SDS011;20471;49.680;20.074;2022-07-22T07:00:08;13.40;;;10.58;;
34204;SDS011;20471;49.680;20.074;2022-07-22T07:02:36;15.98;;;10.75;;
34204;SDS011;20471;49.680;20.074;2022-07-22T07:05:03;14.95;;;10.35;;
34204;SDS011;20471;49.680;20.074;2022-07-22T07:07:31;14.85;;;10.08;;
34204;SDS011;20471;49.680;20.074;2022-07-22T07:09:58;17.87;;;11.00;;
34204;SDS011;20471;49.680;20.074;2022-07-22T07:12:24;23.52;;;10.63;;
34204;SDS011;20471;49.680;20.074;2022-07-22T07:14:51;17.35;;;10.20;;
34204;SDS011;20471;49.680;20.074;2022-07-22T07:17:17;14.43;;;10.53;;
34204;SDS011;20471;49.680;20.074;2022-07-22T07:19:44;12.30;;;10.10;;
34204;SDS011;20471;49.680;20.074;2022-07-22T07:22:10;20.35;;;10.82;;
34204;SDS011;20471;49.680;20.074;2022-07-22T07:24:37;14.30;;;9.75;;
34204;SDS011;20471;49.680;20.074;2022-07-22T07:27:04;13.43;;;10.15;;
34204;SDS011;20471;49.680;20.074;2022-07-22T07:29:30;16.70;;;10.90;;
34204;SDS011;20471;49.680;20.074;2022-07-22T07:31:57;15.00;;;10.55;;
34204;SDS011;20471;49.680;20.074;2022-07-22T07:34:24;14.53;;;9.88;;
34204;SDS011;20471;49.680;20.074;2022-07-22T07:36:50;22.30;;;10.05;;
34204;SDS011;20471;49.680;20.074;2022-07-22T07:39:17;13.35;;;9.53;;
34204;SDS011;20471;49.680;20.074;2022-07-22T07:41:43;16.73;;;10.60;;
34204;SDS011;20471;49.680;20.074;2022-07-22T07:44:10;13.22;;;10.25;;
34204;SDS011;20471;49.680;20.074;2022-07-22T07:46:36;12.15;;;10.08;;
34204;SDS011;20471;49.680;20.074;2022-07-22T07:49:03;12.43;;;10.15;;
34204;SDS011;20471;49.680;20.074;2022-07-22T07:51:30;21.73;;;10.40;;
34204;SDS011;20471;49.680;20.074;2022-07-22T07:53:56;16.20;;;10.68;;
34204;SDS011;20471;49.680;20.074;2022-07-22T07:56:23;12.93;;;9.98;;
34204;SDS011;20471;49.680;20.074;2022-07-22T07:58:49;13.70;;;9.80;;
34204;SDS011;20471;49.680;20.074;2022-07-22T08:01:16;16.93;;;10.13;;
34204;SDS011;20471;49.680;20.074;2022-07-22T08:03:43;17.90;;;9.53;;
34204;SDS011;20471;49.680;20.074;2022-07-22T08:06:09;11.68;;;10.00;;
34204;SDS011;20471;49.680;20.074;2022-07-22T08:08:36;16.80;;;9.38;;
34204;SDS011;20471;49.680;20.074;2022-07-22T08:11:02;12.88;;;9.30;;
34204;SDS011;20471;49.680;20.074;2022-07-22T08:13:29;19.40;;;9.78;;
34204;SDS011;20471;49.680;20.074;2022-07-22T08:15:56;16.85;;;8.83;;
34204;SDS011;20471;49.680;20.074;2022-07-22T08:18:22;17.70;;;9.05;;
34204;SDS011;20471;49.680;20.074;2022-07-22T08:20:50;18.20;;;9.53;;
34204;SDS011;20471;49.680;20.074;2022-07-22T08:23:17;13.53;;;9.10;;
34204;SDS011;20471;49.680;20.074;2022-07-22T08:25:43;14.07;;;9.38;;
34204;SDS011;20471;49.680;20.074;2022-07-22T08:28:10;12.60;;;9.15;;
34204;SDS011;20471;49.680;20.074;2022-07-22T08:30:37;13.55;;;9.33;;
34204;SDS011;20471;49.680;20.074;2022-07-22T08:33:04;17.35;;;9.40;;
34204;SDS011;20471;49.680;20.074;2022-07-22T08:35:32;16.48;;;8.73;;
34204;SDS011;20471;49.680;20.074;2022-07-22T08:37:58;11.08;;;8.45;;
34204;SDS011;20471;49.680;20.074;2022-07-22T08:40:25;14.35;;;10.10;;
34204;SDS011;20471;49.680;20.074;2022-07-22T08:42:52;12.58;;;8.95;;
34204;SDS011;20471;49.680;20.074;2022-07-22T08:45:19;12.63;;;9.40;;
34204;SDS011;20471;49.680;20.074;2022-07-22T08:47:48;13.75;;;8.98;;
34204;SDS011;20471;49.680;20.074;2022-07-22T08:50:17;12.43;;;9.15;;
34204;SDS011;20471;49.680;20.074;2022-07-22T08:52:44;10.78;;;9.28;;
34204;SDS011;20471;49.680;20.074;2022-07-22T08:55:11;13.15;;;8.75;;
34204;SDS011;20471;49.680;20.074;2022-07-22T08:57:37;15.40;;;8.55;;
34204;SDS011;20471;49.680;20.074;2022-07-22T09:00:13;15.58;;;9.00;;
34204;SDS011;20471;49.680;20.074;2022-07-22T09:02:43;11.55;;;8.85;;
34204;SDS011;20471;49.680;20.074;2022-07-22T09:05:11;16.25;;;8.40;;
34204;SDS011;20471;49.680;20.074;2022-07-22T09:07:41;11.65;;;8.38;;
34204;SDS011;20471;49.680;20.074;2022-07-22T09:10:12;10.10;;;8.28;;
34204;SDS011;20471;49.680;20.074;2022-07-22T09:15:30;10.08;;;8.33;;
34204;SDS011;20471;49.680;20.074;2022-07-22T09:18:01;12.37;;;8.23;;
34204;SDS011;20471;49.680;20.074;2022-07-22T09:20:28;16.45;;;8.78;;
34204;SDS011;20471;49.680;20.074;2022-07-22T09:22:55;10.85;;;8.43;;
34204;SDS011;20471;49.680;20.074;2022-07-22T09:25:30;9.95;;;7.67;;
34204;SDS011;20471;49.680;20.074;2022-07-22T09:30:38;10.75;;;8.30;;
34204;SDS011;20471;49.680;20.074;2022-07-22T09:33:08;10.72;;;8.58;;
34204;SDS011;20471;49.680;20.074;2022-07-22T09:35:35;14.93;;;9.03;;
34204;SDS011;20471;49.680;20.074;2022-07-22T09:38:04;11.03;;;8.03;;
34204;SDS011;20471;49.680;20.074;2022-07-22T09:40:35;8.90;;;8.00;;
34204;SDS011;20471;49.680;20.074;2022-07-22T09:43:11;10.70;;;9.45;;
34204;SDS011;20471;49.680;20.074;2022-07-22T09:48:25;10.72;;;7.62;;
34204;SDS011;20471;49.680;20.074;2022-07-22T09:50:53;13.93;;;9.15;;
34204;SDS011;20471;49.680;20.074;2022-07-22T09:53:22;13.30;;;7.90;;
34204;SDS011;20471;49.680;20.074;2022-07-22T09:55:54;9.80;;;8.25;;
34204;SDS011;20471;49.680;20.074;2022-07-22T09:58:23;12.30;;;8.10;;
34204;SDS011;20471;49.680;20.074;2022-07-22T10:00:52;11.03;;;8.55;;
34204;SDS011;20471;49.680;20.074;2022-07-22T10:03:27;17.57;;;7.85;;
34204;SDS011;20471;49.680;20.074;2022-07-22T10:05:56;10.45;;;8.38;;
34204;SDS011;20471;49.680;20.074;2022-07-22T10:08:26;13.95;;;8.35;;
34204;SDS011;20471;49.680;20.074;2022-07-22T10:10:54;9.53;;;7.62;;
34204;SDS011;20471;49.680;20.074;2022-07-22T10:13:24;11.60;;;8.10;;
34204;SDS011;20471;49.680;20.074;2022-07-22T10:15:53;13.98;;;8.05;;
34204;SDS011;20471;49.680;20.074;2022-07-22T10:18:21;12.85;;;8.48;;
34204;SDS011;20471;49.680;20.074;2022-07-22T10:20:52;13.03;;;8.55;;
34204;SDS011;20471;49.680;20.074;2022-07-22T10:23:28;13.48;;;7.95;;
34204;SDS011;20471;49.680;20.074;2022-07-22T10:25:56;9.28;;;8.33;;
34204;SDS011;20471;49.680;20.074;2022-07-22T10:33:50;12.13;;;8.50;;
34204;SDS011;20471;49.680;20.074;2022-07-22T10:36:38;16.73;;;8.30;;
34204;SDS011;20471;49.680;20.074;2022-07-22T10:41:42;9.18;;;7.87;;
34204;SDS011;20471;49.680;20.074;2022-07-22T10:44:11;15.25;;;8.23;;
34204;SDS011;20471;49.680;20.074;2022-07-22T10:46:48;9.98;;;8.25;;
34204;SDS011;20471;49.680;20.074;2022-07-22T10:49:21;14.98;;;8.05;;
34204;SDS011;20471;49.680;20.074;2022-07-22T10:57:43;10.82;;;8.83;;
34204;SDS011;20471;49.680;20.074;2022-07-22T11:00:10;10.10;;;8.50;;
34204;SDS011;20471;49.680;20.074;2022-07-22T11:02:37;18.92;;;8.65;;
34204;SDS011;20471;49.680;20.074;2022-07-22T11:05:05;11.43;;;7.92;;
34204;SDS011;20471;49.680;20.074;2022-07-22T11:07:34;8.48;;;7.67;;
34204;SDS011;20471;49.680;20.074;2022-07-22T11:12:42;13.55;;;8.38;;
34204;SDS011;20471;49.680;20.074;2022-07-22T11:15:09;14.28;;;7.80;;
34204;SDS011;20471;49.680;20.074;2022-07-22T11:17:37;16.15;;;8.53;;
34204;SDS011;20471;49.680;20.074;2022-07-22T11:22:36;16.90;;;8.45;;
34204;SDS011;20471;49.680;20.074;2022-07-22T11:25:04;11.22;;;8.30;;
34204;SDS011;20471;49.680;20.074;2022-07-22T11:27:34;9.03;;;8.13;;
34204;SDS011;20471;49.680;20.074;2022-07-22T11:30:02;14.35;;;8.38;;
34204;SDS011;20471;49.680;20.074;2022-07-22T11:32:31;12.07;;;8.33;;
34204;SDS011;20471;49.680;20.074;2022-07-22T11:34:58;12.65;;;8.38;;
34204;SDS011;20471;49.680;20.074;2022-07-22T11:37:26;9.45;;;8.45;;
34204;SDS011;20471;49.680;20.074;2022-07-22T11:40:04;10.38;;;8.23;;
34204;SDS011;20471;49.680;20.074;2022-07-22T11:42:33;10.88;;;7.55;;
34204;SDS011;20471;49.680;20.074;2022-07-22T11:45:00;11.20;;;9.18;;
34204;SDS011;20471;49.680;20.074;2022-07-22T11:47:27;16.02;;;8.55;;
34204;SDS011;20471;49.680;20.074;2022-07-22T11:49:54;15.25;;;8.40;;
34204;SDS011;20471;49.680;20.074;2022-07-22T11:52:20;10.38;;;8.20;;
34204;SDS011;20471;49.680;20.074;2022-07-22T11:54:47;9.73;;;8.45;;
34204;SDS011;20471;49.680;20.074;2022-07-22T11:57:15;13.30;;;8.75;;
34204;SDS011;20471;49.680;20.074;2022-07-22T11:59:42;12.28;;;8.80;;
34204;SDS011;20471;49.680;20.074;2022-07-22T12:02:09;13.32;;;9.55;;
34204;SDS011;20471;49.680;20.074;2022-07-22T12:04:38;14.28;;;8.25;;
34204;SDS011;20471;49.680;20.074;2022-07-22T12:07:05;11.30;;;8.40;;
34204;SDS011;20471;49.680;20.074;2022-07-22T12:09:33;13.70;;;8.08;;
34204;SDS011;20471;49.680;20.074;2022-07-22T12:12:02;13.10;;;7.70;;
34204;SDS011;20471;49.680;20.074;2022-07-22T12:14:31;9.68;;;7.62;;
34204;SDS011;20471;49.680;20.074;2022-07-22T12:17:01;11.70;;;7.30;;
34204;SDS011;20471;49.680;20.074;2022-07-22T12:19:37;12.00;;;6.25;;
34204;SDS011;20471;49.680;20.074;2022-07-22T12:22:06;7.92;;;6.92;;
34204;SDS011;20471;49.680;20.074;2022-07-22T12:24:37;9.80;;;6.15;;
34204;SDS011;20471;49.680;20.074;2022-07-22T12:27:07;8.85;;;7.08;;
34204;SDS011;20471;49.680;20.074;2022-07-22T12:32:17;11.40;;;6.47;;
34204;SDS011;20471;49.680;20.074;2022-07-22T12:37:28;7.20;;;6.22;;
34204;SDS011;20471;49.680;20.074;2022-07-22T12:40:10;7.28;;;6.58;;
34204;SDS011;20471;49.680;20.074;2022-07-22T12:42:46;7.03;;;6.42;;
34204;SDS011;20471;49.680;20.074;2022-07-22T12:45:31;8.23;;;6.33;;
34204;SDS011;20471;49.680;20.074;2022-07-22T12:53:24;11.65;;;6.42;;
34204;SDS011;20471;49.680;20.074;2022-07-22T12:55:56;8.35;;;6.67;;
34204;SDS011;20471;49.680;20.074;2022-07-22T12:58:24;6.62;;;5.67;;
34204;SDS011;20471;49.680;20.074;2022-07-22T13:00:55;6.92;;;5.70;;
34204;SDS011;20471;49.680;20.074;2022-07-22T13:03:24;7.12;;;5.95;;
34204;SDS011;20471;49.680;20.074;2022-07-22T13:05:54;6.10;;;5.50;;
34204;SDS011;20471;49.680;20.074;2022-07-22T13:08:24;8.45;;;5.70;;
34204;SDS011;20471;49.680;20.074;2022-07-22T13:10:53;7.20;;;4.95;;
34204;SDS011;20471;49.680;20.074;2022-07-22T13:13:20;7.62;;;5.08;;
34204;SDS011;20471;49.680;20.074;2022-07-22T13:15:48;12.13;;;5.33;;
34204;SDS011;20471;49.680;20.074;2022-07-22T13:18:16;5.47;;;4.97;;
34204;SDS011;20471;49.680;20.074;2022-07-22T13:20:43;6.75;;;5.72;;
34204;SDS011;20471;49.680;20.074;2022-07-22T13:23:10;6.67;;;5.30;;
34204;SDS011;20471;49.680;20.074;2022-07-22T13:25:37;8.20;;;5.70;;
34204;SDS011;20471;49.680;20.074;2022-07-22T13:28:03;13.00;;;6.62;;
34204;SDS011;20471;49.680;20.074;2022-07-22T13:30:30;14.07;;;6.15;;
34204;SDS011;20471;49.680;20.074;2022-07-22T13:32:56;8.28;;;6.08;;
34204;SDS011;20471;49.680;20.074;2022-07-22T13:35:23;7.00;;;6.33;;
34204;SDS011;20471;49.680;20.074;2022-07-22T13:37:49;25.35;;;7.72;;
34204;SDS011;20471;49.680;20.074;2022-07-22T13:40:16;11.28;;;6.75;;
34204;SDS011;20471;49.680;20.074;2022-07-22T13:42:42;8.28;;;6.10;;
34204;SDS011;20471;49.680;20.074;2022-07-22T13:45:09;9.08;;;7.15;;
34204;SDS011;20471;49.680;20.074;2022-07-22T13:47:39;11.12;;;7.20;;
34204;SDS011;20471;49.680;20.074;2022-07-22T13:50:06;9.03;;;7.22;;
34204;SDS011;20471;49.680;20.074;2022-07-22T13:52:34;11.10;;;7.20;;
34204;SDS011;20471;49.680;20.074;2022-07-22T13:55:00;7.85;;;7.05;;
34204;SDS011;20471;49.680;20.074;2022-07-22T13:57:27;9.28;;;7.00;;
34204;SDS011;20471;49.680;20.074;2022-07-22T13:59:53;10.25;;;7.33;;
34204;SDS011;20471;49.680;20.074;2022-07-22T14:02:21;9.80;;;7.05;;
34204;SDS011;20471;49.680;20.074;2022-07-22T14:04:48;8.18;;;7.37;;
34204;SDS011;20471;49.680;20.074;2022-07-22T14:07:15;13.15;;;7.42;;
34204;SDS011;20471;49.680;20.074;2022-07-22T14:09:41;10.10;;;7.75;;
34204;SDS011;20471;49.680;20.074;2022-07-22T14:12:08;9.38;;;7.87;;
34204;SDS011;20471;49.680;20.074;2022-07-22T14:14:35;8.30;;;7.50;;
34204;SDS011;20471;49.680;20.074;2022-07-22T14:17:01;9.95;;;7.20;;
34204;SDS011;20471;49.680;20.074;2022-07-22T14:19:28;13.30;;;7.47;;
34204;SDS011;20471;49.680;20.074;2022-07-22T14:21:55;10.55;;;7.45;;
34204;SDS011;20471;49.680;20.074;2022-07-22T14:24:22;9.03;;;7.37;;
34204;SDS011;20471;49.680;20.074;2022-07-22T14:26:50;11.68;;;7.35;;
34204;SDS011;20471;49.680;20.074;2022-07-22T14:29:16;8.15;;;6.90;;
34204;SDS011;20471;49.680;20.074;2022-07-22T14:31:43;7.97;;;6.97;;
34204;SDS011;20471;49.680;20.074;2022-07-22T14:34:09;12.73;;;7.45;;
34204;SDS011;20471;49.680;20.074;2022-07-22T14:36:36;10.10;;;7.37;;
34204;SDS011;20471;49.680;20.074;2022-07-22T14:39:02;10.20;;;7.55;;
34204;SDS011;20471;49.680;20.074;2022-07-22T14:41:29;7.90;;;7.03;;
34204;SDS011;20471;49.680;20.074;2022-07-22T14:43:56;10.10;;;7.45;;
34204;SDS011;20471;49.680;20.074;2022-07-22T14:46:22;9.13;;;7.50;;
34204;SDS011;20471;49.680;20.074;2022-07-22T14:48:49;11.35;;;7.78;;
34204;SDS011;20471;49.680;20.074;2022-07-22T14:51:17;8.03;;;7.22;;
34204;SDS011;20471;49.680;20.074;2022-07-22T14:53:46;9.15;;;7.60;;
34204;SDS011;20471;49.680;20.074;2022-07-22T14:56:12;9.68;;;7.53;;
34204;SDS011;20471;49.680;20.074;2022-07-22T14:58:39;8.38;;;7.47;;
34204;SDS011;20471;49.680;20.074;2022-07-22T15:01:06;9.05;;;7.50;;
34204;SDS011;20471;49.680;20.074;2022-07-22T15:03:33;11.57;;;7.28;;